createdAt,value
2017-11-20T00:01:47.006Z,97663.42
2017-11-20T00:04:13.255Z,97667.98
2017-11-20T00:06:39.562Z,97663.98
2017-11-20T00:09:05.852Z,97665.61
2017-11-20T00:11:32.230Z,97651.34
2017-11-20T00:13:58.850Z,97662.17
2017-11-20T00:16:25.350Z,97652.63
2017-11-20T00:18:51.786Z,97662.14
2017-11-20T00:21:18.235Z,97665.61
2017-11-20T00:23:44.698Z,97666.32
2017-11-20T00:26:11.023Z,97666.43
2017-11-20T00:28:37.478Z,97667.12
2017-11-20T00:31:03.878Z,97659.28
2017-11-20T00:33:30.174Z,97666.18
2017-11-20T00:35:56.832Z,97670.44
2017-11-20T00:38:23.297Z,97660.54
2017-11-20T00:40:49.535Z,97657.08
2017-11-20T00:43:16.239Z,97654.94
2017-11-20T00:45:42.419Z,97645.20
2017-11-20T00:48:08.698Z,97649.48
2017-11-20T00:50:35.123Z,97654.73
2017-11-20T00:53:01.563Z,97656.49
2017-11-20T00:55:27.861Z,97661.05
2017-11-20T00:57:54.308Z,97649.98
2017-11-20T01:00:20.768Z,97653.18
2017-11-20T01:02:47.393Z,97646.50
2017-11-20T01:05:14.033Z,97659.88
2017-11-20T01:07:40.373Z,97649.43
2017-11-20T01:10:06.925Z,97652.23
2017-11-20T01:12:33.231Z,97650.22
2017-11-20T01:14:59.622Z,97652.95
2017-11-20T01:17:26.088Z,97651.72
2017-11-20T01:19:52.457Z,97657.56
2017-11-20T01:22:18.634Z,97650.27
2017-11-20T01:24:44.874Z,97651.12
2017-11-20T01:27:11.475Z,97654.55
2017-11-20T01:29:38.220Z,97648.36
2017-11-20T01:32:04.684Z,97647.74
2017-11-20T01:34:31.005Z,97642.83
2017-11-20T01:36:57.523Z,97643.08
2017-11-20T01:39:23.925Z,97649.30
2017-11-20T01:41:50.148Z,97650.19
2017-11-20T01:44:16.641Z,97651.70
2017-11-20T01:46:43.019Z,97646.24
2017-11-20T01:49:09.987Z,97646.72
2017-11-20T01:51:36.355Z,97638.55
2017-11-20T01:54:02.761Z,97646.97
2017-11-20T01:56:29.664Z,97647.55
2017-11-20T01:58:56.056Z,97644.88
2017-11-20T02:01:22.610Z,97638.01
2017-11-20T02:03:48.950Z,97631.05
2017-11-20T02:06:15.239Z,97630.81
2017-11-20T02:08:41.739Z,97634.20
2017-11-20T02:11:08.358Z,97631.68
2017-11-20T02:13:34.874Z,97633.88
2017-11-20T02:16:01.111Z,97625.94
2017-11-20T02:18:27.389Z,97626.67
2017-11-20T02:20:53.746Z,97629.25
2017-11-20T02:23:20.122Z,97631.92
2017-11-20T02:25:46.594Z,97628.38
2017-11-20T02:28:13.013Z,97624.99
2017-11-20T02:30:39.464Z,97626.83
2017-11-20T02:33:05.856Z,97620.98
2017-11-20T02:35:32.140Z,97617.89
2017-11-20T02:37:58.180Z,97626.05
2017-11-20T02:40:24.358Z,97633.44
2017-11-20T02:42:50.469Z,97631.90
2017-11-20T02:45:16.655Z,97627.61
2017-11-20T02:47:42.685Z,97634.66
2017-11-20T02:50:08.866Z,97631.17
2017-11-20T02:52:35.135Z,97629.11
2017-11-20T02:55:01.276Z,97629.25
2017-11-20T02:57:27.491Z,97620.16
2017-11-20T02:59:54.367Z,97625.66
2017-11-20T03:02:20.863Z,97620.89
2017-11-20T03:04:46.985Z,97625.89
2017-11-20T03:07:13.223Z,97618.19
2017-11-20T03:09:40.150Z,97618.71
2017-11-20T03:12:06.681Z,97610.22
2017-11-20T03:14:32.809Z,97603.13
2017-11-20T03:16:59.348Z,97597.82
2017-11-20T03:19:25.455Z,97605.75
2017-11-20T03:21:51.566Z,97597.63
2017-11-20T03:24:17.736Z,97599.45
2017-11-20T03:26:44.101Z,97598.49
2017-11-20T03:29:10.277Z,97591.67
2017-11-20T03:31:36.531Z,97588.22
2017-11-20T03:34:02.933Z,97581.84
2017-11-20T03:36:29.184Z,97577.89
2017-11-20T03:38:55.301Z,97577.64
2017-11-20T03:41:21.630Z,97579.48
2017-11-20T03:43:47.827Z,97582.98
2017-11-20T03:46:13.960Z,97586.52
2017-11-20T03:48:40.309Z,97598.45
2017-11-20T03:51:06.577Z,97598.30
2017-11-20T03:53:32.913Z,97601.67
2017-11-20T03:55:59.294Z,97610.77
2017-11-20T03:58:25.428Z,97604.76
2017-11-20T04:00:51.439Z,97608.90
2017-11-20T04:03:17.602Z,97605.70
2017-11-20T04:05:43.864Z,97600.98
2017-11-20T04:08:10.094Z,97604.71
2017-11-20T04:10:36.313Z,97600.52
2017-11-20T04:13:02.561Z,97604.16
2017-11-20T04:15:28.767Z,97602.41
2017-11-20T04:17:54.921Z,97604.38
2017-11-20T04:20:20.959Z,97603.35
2017-11-20T04:22:47.111Z,97602.92
2017-11-20T04:25:13.421Z,97603.78
2017-11-20T04:27:39.547Z,97603.75
2017-11-20T04:30:05.709Z,97604.04
2017-11-20T04:32:32.002Z,97599.53
2017-11-20T04:34:58.135Z,97599.38
2017-11-20T04:37:24.639Z,97602.30
2017-11-20T04:39:50.883Z,97605.05
2017-11-20T04:42:17.011Z,97604.55
2017-11-20T04:44:43.215Z,97598.86
2017-11-20T04:47:09.449Z,97602.99
2017-11-20T04:49:35.785Z,97603.05
2017-11-20T04:52:03.019Z,97591.61
2017-11-20T04:54:29.052Z,97595.25
2017-11-20T04:56:55.279Z,97597.78
2017-11-20T04:59:21.429Z,97595.54
2017-11-20T05:01:47.755Z,97602.60
2017-11-20T05:04:14.042Z,97600.80
2017-11-20T05:06:40.193Z,97592.53
2017-11-20T05:09:06.694Z,97594.08
2017-11-20T05:11:32.752Z,97590.30
2017-11-20T05:13:58.850Z,97587.86
2017-11-20T05:16:25.132Z,97585.57
2017-11-20T05:18:51.350Z,97592.44
2017-11-20T05:21:17.343Z,97586.20
2017-11-20T05:23:43.373Z,97583.48
2017-11-20T05:26:09.847Z,97580.34
2017-11-20T05:28:36.091Z,97577.19
2017-11-20T05:31:09.365Z,97576.20
2017-11-20T05:33:35.737Z,97583.13
2017-11-20T05:36:01.988Z,97589.16
2017-11-20T05:38:28.208Z,97587.30
2017-11-20T05:40:54.786Z,97588.70
2017-11-20T05:43:23.034Z,97585.77
2017-11-20T05:45:49.788Z,97590.30
2017-11-20T05:48:16.107Z,97592.87
2017-11-20T05:50:42.563Z,97598.84
2017-11-20T05:53:08.891Z,97596.95
2017-11-20T05:55:35.159Z,97591.47
2017-11-20T05:58:01.455Z,97587.22
2017-11-20T06:00:27.734Z,97592.61
2017-11-20T06:02:56.179Z,97595.52
2017-11-20T06:05:22.771Z,97604.47
2017-11-20T06:07:49.099Z,97600.47
2017-11-20T06:10:15.577Z,97601.30
2017-11-20T06:12:41.871Z,97598.21
2017-11-20T06:15:12.221Z,97599.92
2017-11-20T06:17:38.453Z,97596.31
2017-11-20T06:20:04.710Z,97598.44
2017-11-20T06:22:31.180Z,97603.66
2017-11-20T06:24:57.586Z,97604.83
2017-11-20T06:27:23.871Z,97606.52
2017-11-20T06:29:50.142Z,97610.75
2017-11-20T06:32:16.565Z,97612.12
2017-11-20T06:34:43.564Z,97615.19
2017-11-20T06:37:10.005Z,97616.52
2017-11-20T06:39:37.108Z,97622.27
2017-11-20T06:42:03.570Z,97623.59
2017-11-20T06:44:33.975Z,97628.80
2017-11-20T06:47:00.156Z,97629.67
2017-11-20T06:49:26.796Z,97630.01
2017-11-20T06:51:53.200Z,97627.16
2017-11-20T06:54:19.874Z,97627.39
2017-11-20T06:56:46.455Z,97627.66
2017-11-20T06:59:12.904Z,97625.70
2017-11-20T07:01:39.103Z,97623.39
2017-11-20T07:04:05.306Z,97624.09
2017-11-20T07:06:31.947Z,97614.17
2017-11-20T07:08:58.648Z,97612.16
2017-11-20T07:11:25.087Z,97618.89
2017-11-20T07:13:51.686Z,97621.97
2017-11-20T07:16:18.145Z,97618.62
2017-11-20T07:18:44.761Z,97614.48
2017-11-20T07:21:11.146Z,97613.83
2017-11-20T07:23:37.530Z,97619.75
2017-11-20T07:26:16.211Z,97629.20
2017-11-20T07:28:55.628Z,97630.84
2017-11-20T07:31:30.106Z,97634.18
2017-11-20T07:37:21.501Z,97630.33
2017-11-20T07:39:59.806Z,97633.43
2017-11-20T07:42:26.073Z,97631.75
2017-11-20T07:44:52.450Z,97631.53
2017-11-20T07:47:19.035Z,97628.59
2017-11-20T07:49:45.436Z,97630.89
2017-11-20T07:52:12.192Z,97635.80
2017-11-20T07:54:38.606Z,97632.42
2017-11-20T07:57:04.977Z,97634.45
2017-11-20T07:59:31.498Z,97631.70
2017-11-20T08:01:57.656Z,97629.00
2017-11-20T08:04:24.332Z,97633.22
2017-11-20T08:06:50.781Z,97633.09
2017-11-20T08:09:17.067Z,97632.72
2017-11-20T08:11:43.728Z,97624.84
2017-11-20T08:14:10.210Z,97621.78
2017-11-20T08:16:36.618Z,97623.59
2017-11-20T08:19:02.762Z,97611.47
2017-11-20T08:21:28.865Z,97596.77
2017-11-20T08:23:55.038Z,97599.55
2017-11-20T08:26:21.097Z,97610.28
2017-11-20T08:28:47.146Z,97631.56
2017-11-20T08:31:13.229Z,97619.92
2017-11-20T08:33:39.566Z,97629.36
2017-11-20T08:36:05.941Z,97627.23
2017-11-20T08:38:32.196Z,97625.48
2017-11-20T08:40:58.987Z,97636.17
2017-11-20T08:43:25.328Z,97641.14
2017-11-20T08:45:51.745Z,97644.69
2017-11-20T08:48:18.228Z,97639.88
2017-11-20T08:50:44.645Z,97649.09
2017-11-20T08:53:11.559Z,97646.13
2017-11-20T08:55:37.918Z,97648.94
2017-11-20T08:58:04.332Z,97651.78
2017-11-20T09:00:30.672Z,97647.05
2017-11-20T09:02:57.172Z,97644.98
2017-11-20T09:05:23.461Z,97640.94
2017-11-20T09:07:49.839Z,97648.20
2017-11-20T09:10:16.167Z,97647.08
2017-11-20T09:12:42.932Z,97644.80
2017-11-20T09:15:09.054Z,97642.98
2017-11-20T09:17:35.391Z,97648.50
2017-11-20T09:20:01.662Z,97651.14
2017-11-20T09:22:28.113Z,97651.66
2017-11-20T09:24:54.676Z,97654.03
2017-11-20T09:27:21.120Z,97653.72
2017-11-20T09:29:47.853Z,97653.72
2017-11-20T09:32:14.273Z,97663.70
2017-11-20T09:34:43.368Z,97665.20
2017-11-20T09:37:09.495Z,97669.09
2017-11-20T09:39:35.745Z,97665.53
2017-11-20T09:42:02.161Z,97668.17
2017-11-20T09:44:28.619Z,97668.85
2017-11-20T09:46:54.919Z,97664.91
2017-11-20T09:49:21.473Z,97672.11
2017-11-20T09:51:47.774Z,97658.73
2017-11-20T09:54:14.301Z,97652.84
2017-11-20T09:56:40.830Z,97648.46
2017-11-20T09:59:07.303Z,97658.63
2017-11-20T10:01:33.612Z,97662.63
2017-11-20T10:04:00.134Z,97657.36
2017-11-20T10:06:26.841Z,97655.01
2017-11-20T10:08:53.337Z,97653.96
2017-11-20T10:11:19.898Z,97659.50
2017-11-20T10:13:47.162Z,97657.73
2017-11-20T10:16:13.788Z,97657.45
2017-11-20T10:18:40.399Z,97653.28
2017-11-20T10:21:07.269Z,97646.14
2017-11-20T10:23:34.108Z,97648.11
2017-11-20T10:26:00.789Z,97644.04
2017-11-20T10:28:27.283Z,97635.55
2017-11-20T10:30:53.986Z,97641.84
2017-11-20T10:33:20.499Z,97645.50
2017-11-20T10:35:46.896Z,97632.83
2017-11-20T10:38:13.694Z,97631.77
2017-11-20T10:40:40.895Z,97631.91
2017-11-20T10:43:07.181Z,97629.25
2017-11-20T10:45:34.245Z,97631.91
2017-11-20T10:48:00.772Z,97621.29
2017-11-20T10:50:27.399Z,97618.59
2017-11-20T10:52:54.044Z,97614.77
2017-11-20T10:55:21.653Z,97611.03
2017-11-20T11:00:24.907Z,97610.80
2017-11-20T11:08:10.261Z,97604.80
2017-11-20T11:23:45.911Z,97591.14
2017-11-20T11:26:14.575Z,97586.31
2017-11-20T11:47:29.085Z,97570.95
2017-11-20T11:55:19.368Z,97556.11
2017-11-20T12:00:23.300Z,97549.16
2017-11-20T12:13:06.041Z,97540.25
2017-11-20T12:15:34.104Z,97523.16
2017-11-20T12:18:05.469Z,97506.89
2017-11-20T12:38:47.838Z,97489.66
2017-11-20T12:41:17.372Z,97477.69
2017-11-20T12:46:22.951Z,97472.97
2017-11-20T13:00:31.600Z,97444.66
2017-11-20T13:02:57.718Z,97448.29
2017-11-20T13:05:23.891Z,97448.98
2017-11-20T13:07:49.993Z,97439.24
2017-11-20T13:10:16.349Z,97435.32
2017-11-20T13:12:42.786Z,97432.03
2017-11-20T13:15:10.398Z,97425.04
2017-11-20T13:17:36.916Z,97424.55
2017-11-20T13:20:03.451Z,97412.01
2017-11-20T13:22:32.351Z,97412.80
2017-11-20T13:24:59.335Z,97410.94
2017-11-20T13:27:26.736Z,97407.94
2017-11-20T13:29:53.499Z,97406.24
2017-11-20T13:32:20.318Z,97409.63
2017-11-20T13:34:46.700Z,97412.53
2017-11-20T13:37:13.336Z,97422.77
2017-11-20T13:39:39.731Z,97425.84
2017-11-20T13:42:07.197Z,97418.95
2017-11-20T13:44:34.275Z,97415.09
2017-11-20T13:47:00.931Z,97411.57
2017-11-20T13:49:27.502Z,97410.34
2017-11-20T13:51:54.048Z,97410.52
2017-11-20T13:54:20.529Z,97410.44
2017-11-20T13:56:47.286Z,97405.36
2017-11-20T13:59:13.620Z,97406.86
2017-11-20T14:01:40.779Z,97400.27
2017-11-20T14:04:07.157Z,97405.06
2017-11-20T14:06:33.871Z,97393.27
2017-11-20T14:09:02.598Z,97387.24
2017-11-20T14:11:29.038Z,97386.55
2017-11-20T14:13:55.591Z,97386.14
2017-11-20T14:16:22.205Z,97392.53
2017-11-20T14:18:48.891Z,97393.23
2017-11-20T14:21:15.386Z,97387.58
2017-11-20T14:23:42.017Z,97393.00
2017-11-20T14:26:08.710Z,97396.98
2017-11-20T14:28:37.045Z,97392.39
2017-11-20T14:31:07.238Z,97401.53
2017-11-20T14:33:33.744Z,97407.06
2017-11-20T14:36:00.326Z,97401.37
2017-11-20T14:38:27.149Z,97409.30
2017-11-20T14:40:53.834Z,97408.23
2017-11-20T14:43:20.233Z,97408.03
2017-11-20T14:45:46.812Z,97401.64
2017-11-20T14:48:16.196Z,97397.32
2017-11-20T14:50:43.834Z,97395.63
2017-11-20T14:53:11.643Z,97401.97
2017-11-20T14:55:38.395Z,97400.36
2017-11-20T14:58:05.477Z,97398.39
2017-11-20T15:00:31.930Z,97390.61
2017-11-20T15:02:58.445Z,97394.76
2017-11-20T15:05:25.237Z,97390.94
2017-11-20T15:07:51.748Z,97392.52
2017-11-20T15:10:18.180Z,97391.88
2017-11-20T15:12:45.123Z,97398.38
2017-11-20T15:15:11.659Z,97406.53
2017-11-20T15:17:44.827Z,97416.57
2017-11-20T15:20:11.310Z,97410.55
2017-11-20T15:22:39.635Z,97417.78
2017-11-20T15:25:06.127Z,97407.78
2017-11-20T15:27:32.317Z,97397.25
2017-11-20T15:29:58.483Z,97394.35
2017-11-20T15:32:30.949Z,97403.77
2017-11-20T15:34:57.136Z,97408.84
2017-11-20T15:37:23.384Z,97404.88
2017-11-20T15:39:51.038Z,97411.61
2017-11-20T15:42:17.491Z,97412.17
2017-11-20T15:44:43.539Z,97409.11
2017-11-20T15:47:09.615Z,97409.23
2017-11-20T15:49:35.683Z,97406.25
2017-11-20T15:52:01.768Z,97400.20
2017-11-20T15:54:27.942Z,97409.48
2017-11-20T15:56:55.075Z,97410.08
2017-11-20T15:59:21.312Z,97413.25
2017-11-20T16:01:47.386Z,97407.95
2017-11-20T16:04:13.512Z,97409.80
2017-11-20T16:06:40.862Z,97409.39
2017-11-20T16:09:06.884Z,97401.50
2017-11-20T16:11:32.998Z,97397.58
2017-11-20T16:14:00.102Z,97391.90
2017-11-20T16:16:26.245Z,97389.80
2017-11-20T16:18:52.723Z,97392.17
2017-11-20T16:21:19.136Z,97389.30
2017-11-20T16:23:46.605Z,97389.46
2017-11-20T16:26:12.875Z,97395.72
2017-11-20T16:28:39.319Z,97393.66
2017-11-20T16:31:08.218Z,97389.86
2017-11-20T16:33:37.558Z,97378.94
2017-11-20T16:36:04.289Z,97381.69
2017-11-20T16:38:30.985Z,97376.10
2017-11-20T16:40:58.315Z,97370.05
2017-11-20T16:43:24.691Z,97379.95
2017-11-20T16:45:50.826Z,97384.52
2017-11-20T16:48:16.984Z,97380.63
2017-11-20T16:50:43.428Z,97370.11
2017-11-20T16:53:09.454Z,97370.70
2017-11-20T16:55:36.085Z,97360.17
2017-11-20T16:58:14.533Z,97358.05
2017-11-20T17:00:46.666Z,97353.17
2017-11-20T17:03:12.873Z,97349.11
2017-11-20T17:05:39.000Z,97350.28
2017-11-20T17:08:05.170Z,97347.91
2017-11-20T17:13:30.663Z,97365.27
2017-11-20T17:15:56.746Z,97360.70
2017-11-20T17:18:22.850Z,97362.83
2017-11-20T17:20:49.011Z,97363.63
2017-11-20T17:23:15.079Z,97364.59
2017-11-20T17:25:41.212Z,97364.59
2017-11-20T17:28:07.327Z,97364.09
2017-11-20T17:30:33.576Z,97361.45
2017-11-20T17:32:59.634Z,97372.58
2017-11-20T17:35:25.901Z,97363.79
2017-11-20T17:37:52.587Z,97358.58
2017-11-20T17:40:21.241Z,97356.94
2017-11-20T17:42:47.901Z,97363.75
2017-11-20T17:45:14.254Z,97361.78
2017-11-20T17:47:40.632Z,97364.68
2017-11-20T17:50:08.253Z,97357.89
2017-11-20T17:52:34.772Z,97355.27
2017-11-20T17:55:03.343Z,97354.38
2017-11-20T17:57:35.778Z,97359.53
2017-11-20T18:00:02.701Z,97350.61
2017-11-20T18:02:36.028Z,97345.74
2017-11-20T18:05:04.128Z,97340.81
2017-11-20T18:07:46.349Z,97340.81
2017-11-20T18:10:24.811Z,97330.78
2017-11-20T18:12:51.944Z,97330.41
2017-11-20T18:15:22.514Z,97336.23
2017-11-20T18:17:49.443Z,97331.12
2017-11-20T18:20:17.232Z,97342.22
2017-11-20T18:25:19.848Z,97352.25
2017-11-20T18:27:54.694Z,97342.07
2017-11-20T18:32:59.219Z,97341.33
2017-11-20T18:40:48.798Z,97331.77
2017-11-20T18:45:57.949Z,97318.41
2017-11-20T18:50:59.163Z,97317.61
2017-11-20T18:53:25.557Z,97330.21
2017-11-20T18:55:54.024Z,97341.64
2017-11-20T18:58:20.549Z,97345.05
2017-11-20T19:00:59.065Z,97347.57
2017-11-20T19:03:26.786Z,97343.89
2017-11-20T19:06:05.017Z,97337.16
2017-11-20T19:08:41.045Z,97340.20
2017-11-20T19:11:07.167Z,97341.23
2017-11-20T19:13:33.426Z,97338.47
2017-11-20T19:15:59.982Z,97349.23
2017-11-20T19:18:26.192Z,97357.27
2017-11-20T19:20:52.327Z,97358.17
2017-11-20T19:23:18.997Z,97351.62
2017-11-20T19:25:45.137Z,97338.22
2017-11-20T19:28:11.255Z,97330.08
2017-11-20T19:30:37.684Z,97343.19
2017-11-20T19:33:03.960Z,97333.70
2017-11-20T19:35:30.253Z,97332.37
2017-11-20T19:37:56.905Z,97335.97
2017-11-20T19:40:23.725Z,97337.91
2017-11-20T19:42:49.969Z,97332.67
2017-11-20T19:45:17.189Z,97328.63
2017-11-20T19:47:43.239Z,97327.65
2017-11-20T19:50:09.317Z,97325.43
2017-11-20T19:52:35.416Z,97331.10
2017-11-20T19:55:01.631Z,97321.39
2017-11-20T19:57:27.804Z,97321.33
2017-11-20T19:59:53.932Z,97329.20
2017-11-20T20:02:19.983Z,97337.52
2017-11-20T20:04:46.214Z,97332.65
2017-11-20T20:07:13.096Z,97318.65
2017-11-20T20:09:40.120Z,97301.20
2017-11-20T20:12:06.191Z,97311.03
2017-11-20T20:17:38.773Z,97305.59
2017-11-20T20:20:04.947Z,97310.37
2017-11-20T20:22:31.164Z,97319.83
2017-11-20T20:24:57.318Z,97322.30
2017-11-20T20:27:24.041Z,97303.25
2017-11-20T20:29:50.169Z,97309.97
2017-11-20T20:32:16.276Z,97310.24
2017-11-20T20:34:42.337Z,97325.56
2017-11-20T20:37:08.487Z,97323.63
2017-11-20T20:39:34.664Z,97326.59
2017-11-20T20:42:01.027Z,97311.20
2017-11-20T20:44:27.311Z,97304.36
2017-11-20T20:46:53.605Z,97306.20
2017-11-20T20:49:19.751Z,97309.00
2017-11-20T20:51:45.923Z,97313.07
2017-11-20T20:54:12.076Z,97298.92
2017-11-20T20:56:38.170Z,97294.89
2017-11-20T20:59:04.573Z,97306.30
2017-11-20T21:01:30.824Z,97300.53
2017-11-20T21:03:56.934Z,97308.48
2017-11-20T21:06:23.012Z,97305.12
2017-11-20T21:08:49.213Z,97310.57
2017-11-20T21:11:21.484Z,97312.20
2017-11-20T21:13:47.871Z,97316.84
2017-11-20T21:16:14.108Z,97322.75
2017-11-20T21:18:40.248Z,97330.89
2017-11-20T21:21:06.327Z,97330.97
2017-11-20T21:23:32.596Z,97330.36
2017-11-20T21:25:58.721Z,97326.17
2017-11-20T21:28:25.240Z,97326.08
2017-11-20T21:30:51.448Z,97317.09
2017-11-20T21:33:17.678Z,97308.61
2017-11-20T21:35:43.752Z,97298.84
2017-11-20T21:38:09.957Z,97300.14
2017-11-20T21:40:36.328Z,97286.36
2017-11-20T21:43:02.632Z,97280.55
2017-11-20T21:45:28.925Z,97285.72
2017-11-20T21:47:55.288Z,97272.37
2017-11-20T21:50:21.459Z,97273.98
2017-11-20T21:52:47.694Z,97261.95
2017-11-20T21:55:13.914Z,97261.92
2017-11-20T21:57:40.062Z,97250.52
2017-11-20T22:00:06.182Z,97237.95
2017-11-20T22:02:32.309Z,97217.42
2017-11-20T22:04:58.462Z,97223.71
2017-11-20T22:07:24.590Z,97233.94
2017-11-20T22:09:50.995Z,97234.34
2017-11-20T22:12:17.143Z,97234.93
2017-11-20T22:14:43.391Z,97239.08
2017-11-20T22:17:09.501Z,97243.55
2017-11-20T22:19:35.630Z,97243.10
2017-11-20T22:22:01.855Z,97238.83
2017-11-20T22:24:28.179Z,97239.81
2017-11-20T22:26:54.316Z,97227.77
2017-11-20T22:29:20.441Z,97238.47
2017-11-20T22:31:46.486Z,97243.39
2017-11-20T22:34:12.831Z,97236.62
2017-11-20T22:36:38.989Z,97228.82
2017-11-20T22:39:05.218Z,97229.59
2017-11-20T22:41:31.482Z,97231.53
2017-11-20T22:43:57.521Z,97229.03
2017-11-20T22:46:23.607Z,97236.40
2017-11-20T22:48:49.661Z,97236.98
2017-11-20T22:51:15.713Z,97235.20
2017-11-20T22:53:42.110Z,97241.39
2017-11-20T22:56:08.230Z,97236.09
2017-11-20T22:58:34.362Z,97240.07
2017-11-20T23:01:00.495Z,97231.91
2017-11-20T23:03:26.565Z,97235.20
2017-11-20T23:05:52.688Z,97238.75
2017-11-20T23:08:18.778Z,97236.68
2017-11-20T23:10:44.892Z,97242.59
2017-11-20T23:13:11.060Z,97244.23
2017-11-20T23:15:37.232Z,97240.41
2017-11-20T23:18:03.315Z,97243.67
2017-11-20T23:20:29.593Z,97238.83
2017-11-20T23:22:55.693Z,97247.70
2017-11-20T23:25:21.829Z,97252.36
2017-11-20T23:27:47.954Z,97247.06
2017-11-20T23:30:14.077Z,97246.63
2017-11-20T23:32:40.198Z,97244.72
2017-11-20T23:35:06.308Z,97243.03
2017-11-20T23:37:32.838Z,97243.55
2017-11-20T23:39:59.109Z,97244.25
2017-11-20T23:42:25.238Z,97252.48
2017-11-20T23:44:51.608Z,97261.66
2017-11-20T23:47:17.608Z,97251.88
2017-11-20T23:49:43.832Z,97245.93
2017-11-20T23:52:09.944Z,97235.05
2017-11-20T23:54:36.768Z,97228.43
2017-11-20T23:57:02.941Z,97220.86
2017-11-20T23:59:29.016Z,97213.74
